createdAt,value
2022-10-29T00:01:56.000Z,18.25
2022-10-29T00:05:01.217Z,18.30
2022-10-29T00:08:06.679Z,16.08
2022-10-29T00:11:15.985Z,16.50
2022-10-29T00:14:21.408Z,17.27
2022-10-29T00:17:26.776Z,17.83
2022-10-29T00:20:32.105Z,15.25
2022-10-29T00:23:37.832Z,15.45
2022-10-29T00:26:42.726Z,16.25
2022-10-29T00:29:48.099Z,16.83
2022-10-29T00:32:53.799Z,17.15
2022-10-29T00:36:15.493Z,15.05
2022-10-29T00:39:21.095Z,15.10
2022-10-29T00:42:26.502Z,16.80
2022-10-29T00:45:32.572Z,16.65
2022-10-29T00:48:45.715Z,15.88
2022-10-29T00:51:52.758Z,15.38
2022-10-29T00:55:02.900Z,14.52
2022-10-29T00:58:12.235Z,14.93
2022-10-29T01:01:18.139Z,15.45
2022-10-29T01:04:25.974Z,16.02
2022-10-29T01:07:31.904Z,16.50
2022-10-29T01:11:04.357Z,15.30
2022-10-29T01:14:12.519Z,15.88
2022-10-29T01:17:32.943Z,15.57
2022-10-29T01:20:58.814Z,15.48
2022-10-29T01:24:22.133Z,15.25
2022-10-29T01:27:36.476Z,13.75
2022-10-29T01:31:20.029Z,16.73
2022-10-29T01:34:53.338Z,15.15
2022-10-29T01:38:27.622Z,16.58
2022-10-29T01:41:56.886Z,16.10
2022-10-29T01:45:22.760Z,15.00
2022-10-29T01:48:34.650Z,14.82
2022-10-29T01:51:43.474Z,13.93
2022-10-29T01:54:49.847Z,13.90
2022-10-29T01:57:55.614Z,12.57
2022-10-29T02:01:12.852Z,12.95
2022-10-29T02:04:25.115Z,12.25
2022-10-29T02:07:54.848Z,12.38
2022-10-29T02:11:08.953Z,12.80
2022-10-29T02:14:33.663Z,13.38
2022-10-29T02:17:39.495Z,12.75
2022-10-29T02:20:46.816Z,12.80
2022-10-29T02:23:52.763Z,14.63
2022-10-29T02:26:58.419Z,13.82
2022-10-29T02:30:05.643Z,14.88
2022-10-29T02:33:11.048Z,15.60
2022-10-29T02:36:16.674Z,14.57
2022-10-29T02:39:22.200Z,13.38
2022-10-29T02:42:27.659Z,16.05
2022-10-29T02:45:33.201Z,14.15
2022-10-29T02:48:38.785Z,14.43
2022-10-29T02:51:43.945Z,15.18
2022-10-29T02:54:49.355Z,15.43
2022-10-29T02:57:55.004Z,15.40
2022-10-29T03:01:01.745Z,13.32
2022-10-29T03:04:07.122Z,14.50
2022-10-29T03:07:12.496Z,15.23
2022-10-29T03:10:18.148Z,15.00
2022-10-29T03:13:23.243Z,15.07
2022-10-29T03:16:28.475Z,14.65
2022-10-29T03:19:33.720Z,13.95
2022-10-29T03:22:39.409Z,15.10
2022-10-29T03:25:55.619Z,15.45
2022-10-29T03:29:01.631Z,14.82
2022-10-29T03:32:06.833Z,13.95
2022-10-29T03:35:14.962Z,15.98
2022-10-29T03:38:20.178Z,15.00
2022-10-29T03:41:25.608Z,14.43
2022-10-29T03:44:32.420Z,13.88
2022-10-29T03:47:38.186Z,14.35
2022-10-29T03:50:43.592Z,15.00
2022-10-29T03:53:49.254Z,12.73
2022-10-29T03:56:54.663Z,12.60
2022-10-29T04:00:01.408Z,14.10
2022-10-29T04:03:06.788Z,13.68
2022-10-29T04:06:14.920Z,15.80
2022-10-29T04:09:20.557Z,14.98
2022-10-29T04:12:26.174Z,14.52
2022-10-29T04:15:32.564Z,13.80
2022-10-29T04:18:37.690Z,14.13
2022-10-29T04:28:42.990Z,13.77
2022-10-29T04:31:49.050Z,15.13
2022-10-29T04:34:54.309Z,13.00
2022-10-29T04:37:59.749Z,12.20
2022-10-29T04:41:05.730Z,13.20
2022-10-29T04:44:11.106Z,12.52
2022-10-29T04:47:16.315Z,12.95
2022-10-29T04:50:21.789Z,13.27
2022-10-29T04:53:27.944Z,12.75
2022-10-29T04:56:33.445Z,14.43
2022-10-29T04:59:38.934Z,13.43
2022-10-29T05:02:49.625Z,16.10
2022-10-29T05:05:54.996Z,13.98
2022-10-29T05:09:00.319Z,13.57
2022-10-29T05:12:07.275Z,12.95
2022-10-29T05:15:12.631Z,13.13
2022-10-29T05:18:18.540Z,14.30
2022-10-29T05:21:23.900Z,12.25
2022-10-29T05:24:29.673Z,12.95
2022-10-29T05:27:35.049Z,11.77
2022-10-29T05:30:42.146Z,12.65
2022-10-29T05:33:49.923Z,11.70
2022-10-29T05:36:58.539Z,13.63
2022-10-29T05:40:03.932Z,13.65
2022-10-29T05:43:09.087Z,13.00
2022-10-29T05:46:14.781Z,12.50
2022-10-29T05:49:20.324Z,13.23
2022-10-29T05:52:25.972Z,11.85
2022-10-29T05:55:34.197Z,12.60
2022-10-29T05:58:40.147Z,11.48
2022-10-29T06:01:45.921Z,13.23
2022-10-29T06:04:51.850Z,13.43
2022-10-29T06:07:59.179Z,12.10
2022-10-29T06:11:05.633Z,12.20
2022-10-29T06:14:10.872Z,12.75
2022-10-29T06:17:16.210Z,12.48
2022-10-29T06:20:22.260Z,12.75
2022-10-29T06:23:28.862Z,12.18
2022-10-29T06:26:34.298Z,12.57
2022-10-29T06:29:40.021Z,13.65
2022-10-29T06:32:47.690Z,13.05
2022-10-29T06:35:53.563Z,13.52
2022-10-29T06:38:59.372Z,14.20
2022-10-29T06:42:13.723Z,17.58
2022-10-29T06:45:19.093Z,16.38
2022-10-29T06:48:24.372Z,15.57
2022-10-29T06:51:29.924Z,16.88
2022-10-29T06:54:36.020Z,19.13
2022-10-29T06:57:42.444Z,18.63
2022-10-29T07:00:49.364Z,20.17
2022-10-29T07:03:55.137Z,20.85
2022-10-29T07:07:00.215Z,21.52
2022-10-29T07:10:06.148Z,23.67
2022-10-29T07:13:11.653Z,23.67
2022-10-29T07:16:17.024Z,22.98
2022-10-29T07:19:22.921Z,21.80
2022-10-29T07:22:33.943Z,24.63
2022-10-29T07:25:41.374Z,23.17
2022-10-29T07:28:46.527Z,24.20
2022-10-29T07:31:51.897Z,22.38
2022-10-29T07:34:57.601Z,24.95
2022-10-29T07:38:10.454Z,24.20
2022-10-29T07:41:17.100Z,23.27
2022-10-29T07:44:23.069Z,24.65
2022-10-29T07:47:28.746Z,22.85
2022-10-29T07:50:34.897Z,22.90
2022-10-29T07:53:40.896Z,22.17
2022-10-29T07:56:47.837Z,23.98
2022-10-29T07:59:53.992Z,25.52
2022-10-29T08:02:59.866Z,24.70
2022-10-29T08:06:05.783Z,24.80
2022-10-29T08:09:12.614Z,25.35
2022-10-29T08:12:18.225Z,22.60
2022-10-29T08:15:24.963Z,22.50
2022-10-29T08:18:30.565Z,21.08
2022-10-29T08:21:36.189Z,19.95
2022-10-29T08:24:41.721Z,19.60
2022-10-29T08:28:02.451Z,17.98
2022-10-29T08:31:08.091Z,17.55
2022-10-29T08:34:13.261Z,17.77
2022-10-29T08:37:18.996Z,17.58
2022-10-29T08:40:59.370Z,17.13
2022-10-29T08:44:27.578Z,16.60
2022-10-29T08:47:59.111Z,17.08
2022-10-29T08:51:07.457Z,16.98
2022-10-29T08:54:32.272Z,14.43
2022-10-29T08:57:43.806Z,17.48
2022-10-29T09:00:53.359Z,11.25
2022-10-29T09:03:59.492Z,13.27
2022-10-29T09:07:25.957Z,12.52
2022-10-29T09:10:41.724Z,12.82
2022-10-29T09:14:13.451Z,13.43
2022-10-29T09:17:31.311Z,17.52
2022-10-29T09:20:48.562Z,12.43
2022-10-29T09:24:20.597Z,12.55
2022-10-29T09:28:00.584Z,11.65
2022-10-29T09:31:28.877Z,12.18
2022-10-29T09:34:53.279Z,11.23
2022-10-29T09:38:09.185Z,10.43
2022-10-29T09:41:15.841Z,11.05
2022-10-29T09:44:24.155Z,11.63
2022-10-29T09:47:58.226Z,10.63
2022-10-29T09:51:06.779Z,10.60
2022-10-29T09:54:13.524Z,9.68
2022-10-29T09:57:25.618Z,10.75
2022-10-29T10:00:33.940Z,8.95
2022-10-29T10:03:46.142Z,9.60
2022-10-29T10:07:11.780Z,9.30
2022-10-29T10:10:24.135Z,9.98
2022-10-29T10:13:32.936Z,8.77
2022-10-29T10:16:38.573Z,9.25
2022-10-29T10:19:49.298Z,8.32
2022-10-29T10:22:54.872Z,8.50
2022-10-29T10:26:04.016Z,10.05
2022-10-29T10:29:25.583Z,8.63
2022-10-29T10:32:32.428Z,7.85
2022-10-29T10:35:39.101Z,7.10
2022-10-29T10:38:53.418Z,7.35
2022-10-29T10:42:02.848Z,6.63
2022-10-29T10:45:36.288Z,7.40
2022-10-29T10:48:42.577Z,6.32
2022-10-29T10:51:56.508Z,6.38
2022-10-29T10:55:26.402Z,7.40
2022-10-29T10:58:36.013Z,6.40
2022-10-29T11:01:49.030Z,5.35
2022-10-29T11:05:12.450Z,5.97
2022-10-29T11:08:32.823Z,6.25
2022-10-29T11:11:42.681Z,5.88
2022-10-29T11:15:16.255Z,5.65
2022-10-29T11:18:32.063Z,4.53
2022-10-29T11:21:48.814Z,4.53
2022-10-29T11:25:22.377Z,3.72
2022-10-29T11:28:39.046Z,3.25
2022-10-29T11:31:57.895Z,2.78
2022-10-29T11:35:10.168Z,3.35
2022-10-29T11:38:25.827Z,3.60
2022-10-29T11:41:40.263Z,4.00
2022-10-29T11:44:45.700Z,3.63
2022-10-29T11:48:07.099Z,3.88
2022-10-29T11:51:29.178Z,4.30
2022-10-29T11:54:57.556Z,3.80
2022-10-29T11:58:18.944Z,5.10
2022-10-29T12:01:50.080Z,4.45
2022-10-29T12:08:13.453Z,4.13
2022-10-29T12:14:47.023Z,4.57
2022-10-29T12:18:15.827Z,4.00
2022-10-29T12:21:26.735Z,4.05
2022-10-29T12:24:54.035Z,4.15
2022-10-29T12:28:19.882Z,4.82
2022-10-29T12:31:38.375Z,3.33
2022-10-29T12:34:53.584Z,3.50
2022-10-29T12:38:20.050Z,2.13
2022-10-29T12:41:43.917Z,3.17
2022-10-29T12:45:13.334Z,2.58
2022-10-29T12:48:33.625Z,2.63
2022-10-29T12:55:12.946Z,2.35
2022-10-29T12:58:43.964Z,2.42
2022-10-29T13:02:10.642Z,2.33
2022-10-29T13:05:19.187Z,2.80
2022-10-29T13:08:34.519Z,3.10
2022-10-29T13:11:50.657Z,3.25
2022-10-29T13:15:05.364Z,2.53
2022-10-29T13:18:41.652Z,2.78
2022-10-29T13:22:03.447Z,1.95
2022-10-29T13:25:43.406Z,2.85
2022-10-29T13:28:51.603Z,2.00
2022-10-29T13:32:04.742Z,3.25
2022-10-29T13:35:19.431Z,2.63
2022-10-29T13:39:04.838Z,2.58
2022-10-29T13:42:13.364Z,2.97
2022-10-29T13:45:20.450Z,2.75
2022-10-29T13:48:31.831Z,2.33
2022-10-29T13:51:44.615Z,2.65
2022-10-29T13:54:54.498Z,3.47
2022-10-29T13:58:16.110Z,2.90
2022-10-29T14:01:23.137Z,3.78
2022-10-29T14:04:38.108Z,4.47
2022-10-29T14:08:06.997Z,8.23
2022-10-29T14:11:25.576Z,12.43
2022-10-29T14:14:37.278Z,12.88
2022-10-29T14:17:42.462Z,13.30
2022-10-29T14:20:55.955Z,13.60
2022-10-29T14:24:04.567Z,13.77
2022-10-29T14:27:15.450Z,14.27
2022-10-29T14:30:20.745Z,13.75
2022-10-29T14:33:32.222Z,14.25
2022-10-29T14:36:51.195Z,15.63
2022-10-29T14:40:00.355Z,13.80
2022-10-29T14:43:06.076Z,13.40
2022-10-29T14:46:17.173Z,13.88
2022-10-29T14:49:25.445Z,13.75
2022-10-29T14:52:38.837Z,14.27
2022-10-29T14:55:48.376Z,12.23
2022-10-29T14:58:53.628Z,12.38
2022-10-29T15:02:17.305Z,11.55
2022-10-29T15:05:28.808Z,11.45
2022-10-29T15:08:39.771Z,11.27
2022-10-29T15:12:03.985Z,10.75
2022-10-29T15:15:25.375Z,11.10
2022-10-29T15:21:40.346Z,11.15
2022-10-29T15:24:46.979Z,11.63
2022-10-29T15:27:53.560Z,12.20
2022-10-29T15:31:04.051Z,12.60
2022-10-29T15:34:14.337Z,13.57
2022-10-29T15:37:19.393Z,13.30
2022-10-29T15:40:26.398Z,12.13
2022-10-29T15:43:32.550Z,13.60
2022-10-29T15:46:50.274Z,15.02
2022-10-29T15:49:55.891Z,14.48
2022-10-29T15:53:06.055Z,14.43
2022-10-29T15:56:15.117Z,16.70
2022-10-29T15:59:25.170Z,14.95
2022-10-29T16:02:30.900Z,16.07
2022-10-29T16:05:38.008Z,14.80
2022-10-29T16:08:50.415Z,14.18
2022-10-29T16:11:55.690Z,15.23
2022-10-29T16:15:01.160Z,15.85
2022-10-29T16:18:06.465Z,17.20
2022-10-29T16:21:24.428Z,16.95
2022-10-29T16:24:29.972Z,17.80
2022-10-29T16:27:35.082Z,15.00
2022-10-29T16:33:53.441Z,15.95
2022-10-29T16:36:58.785Z,14.77
2022-10-29T16:40:04.634Z,17.95
2022-10-29T16:43:10.280Z,15.98
2022-10-29T16:46:16.367Z,16.15
2022-10-29T16:49:22.095Z,15.73
2022-10-29T16:52:29.841Z,16.00
2022-10-29T16:55:38.020Z,15.95
2022-10-29T16:58:43.805Z,17.23
2022-10-29T17:01:49.121Z,16.58
2022-10-29T17:04:54.719Z,17.27
2022-10-29T17:08:00.071Z,16.05
2022-10-29T17:11:10.351Z,15.45
2022-10-29T17:14:15.821Z,16.25
2022-10-29T17:17:21.596Z,16.02
2022-10-29T17:20:27.038Z,16.98
2022-10-29T17:23:33.402Z,17.23
2022-10-29T17:26:38.983Z,16.60
2022-10-29T17:29:44.463Z,16.95
2022-10-29T17:32:51.500Z,19.60
2022-10-29T17:36:10.849Z,19.83
2022-10-29T17:39:16.261Z,18.20
2022-10-29T17:42:21.720Z,18.38
2022-10-29T17:45:27.193Z,19.50
2022-10-29T17:48:32.417Z,19.83
2022-10-29T17:51:37.874Z,18.65
2022-10-29T17:54:43.679Z,18.48
2022-10-29T17:57:48.817Z,18.08
2022-10-29T18:00:54.174Z,17.10
2022-10-29T18:04:04.705Z,19.67
2022-10-29T18:07:10.511Z,18.83
2022-10-29T18:10:17.545Z,17.83
2022-10-29T18:13:23.510Z,17.35
2022-10-29T18:16:30.433Z,17.38
2022-10-29T18:19:35.754Z,17.15
2022-10-29T18:22:41.160Z,17.70
2022-10-29T18:26:02.790Z,17.75
2022-10-29T18:29:11.912Z,18.10
2022-10-29T18:32:17.434Z,18.35
2022-10-29T18:35:23.066Z,18.70
2022-10-29T18:38:30.803Z,20.00
2022-10-29T18:41:36.785Z,18.95
2022-10-29T18:44:42.128Z,17.38
2022-10-29T18:47:47.557Z,18.33
2022-10-29T18:50:53.983Z,17.40
2022-10-29T18:54:00.143Z,19.85
2022-10-29T18:57:06.459Z,18.45
2022-10-29T19:00:12.763Z,17.73
2022-10-29T19:03:18.168Z,18.27
2022-10-29T19:06:26.792Z,18.15
2022-10-29T19:09:32.542Z,19.90
2022-10-29T19:12:37.971Z,18.50
2022-10-29T19:15:43.799Z,19.70
2022-10-29T19:18:58.366Z,20.40
2022-10-29T19:22:03.950Z,20.38
2022-10-29T19:25:09.183Z,19.85
2022-10-29T19:28:14.682Z,21.92
2022-10-29T19:31:23.018Z,20.92
2022-10-29T19:34:28.476Z,20.65
2022-10-29T19:37:34.126Z,19.38
2022-10-29T19:40:39.304Z,20.20
2022-10-29T19:43:45.024Z,20.27
2022-10-29T19:46:51.149Z,20.83
2022-10-29T19:49:56.802Z,19.90
2022-10-29T19:53:02.903Z,19.88
2022-10-29T19:56:11.612Z,21.02
2022-10-29T19:59:16.864Z,20.52
2022-10-29T20:02:22.520Z,22.38
2022-10-29T20:05:27.952Z,19.63
2022-10-29T20:08:34.281Z,19.60
2022-10-29T20:11:40.264Z,19.98
2022-10-29T20:14:46.283Z,19.88
2022-10-29T20:17:52.429Z,20.55
2022-10-29T20:20:58.325Z,19.90
2022-10-29T20:24:04.698Z,20.27
2022-10-29T20:27:10.626Z,21.42
2022-10-29T20:30:16.719Z,19.80
2022-10-29T20:33:22.281Z,18.13
2022-10-29T20:36:30.948Z,18.30
2022-10-29T20:39:37.193Z,21.90
2022-10-29T20:42:43.324Z,23.20
2022-10-29T20:45:49.328Z,24.00
2022-10-29T20:48:54.738Z,22.90
2022-10-29T20:52:00.276Z,22.75
2022-10-29T20:55:07.424Z,19.45
2022-10-29T20:58:13.545Z,19.63
2022-10-29T21:01:21.510Z,19.38
2022-10-29T21:04:27.872Z,20.08
2022-10-29T21:07:33.857Z,20.20
2022-10-29T21:10:39.572Z,19.80
2022-10-29T21:13:46.538Z,17.90
2022-10-29T21:16:52.035Z,19.30
2022-10-29T21:19:57.920Z,19.15
2022-10-29T21:23:03.983Z,20.67
2022-10-29T21:26:13.614Z,22.55
2022-10-29T21:29:19.714Z,22.60
2022-10-29T21:32:26.014Z,19.70
2022-10-29T21:35:32.140Z,21.77
2022-10-29T21:38:38.267Z,20.40
2022-10-29T21:41:44.157Z,20.42
2022-10-29T21:44:49.995Z,18.85
2022-10-29T21:47:55.816Z,20.70
2022-10-29T21:51:12.904Z,19.67
2022-10-29T21:54:20.066Z,20.40
2022-10-29T21:57:28.116Z,21.05
2022-10-29T22:00:34.168Z,20.33
2022-10-29T22:03:42.102Z,19.52
2022-10-29T22:06:47.822Z,20.23
2022-10-29T22:09:54.244Z,20.52
2022-10-29T22:13:00.328Z,21.90
2022-10-29T22:16:07.593Z,20.95
2022-10-29T22:19:13.554Z,22.70
2022-10-29T22:22:19.563Z,20.88
2022-10-29T22:25:25.325Z,20.42
2022-10-29T22:28:30.768Z,21.67
2022-10-29T22:31:36.725Z,21.23
2022-10-29T22:34:42.331Z,19.92
2022-10-29T22:37:48.317Z,20.30
2022-10-29T22:40:54.174Z,20.90
2022-10-29T22:44:00.329Z,19.65
2022-10-29T22:47:06.107Z,20.10
2022-10-29T22:50:12.108Z,19.25
2022-10-29T22:53:17.759Z,20.45
2022-10-29T22:56:26.251Z,22.10
2022-10-29T22:59:32.205Z,20.85
2022-10-29T23:02:37.788Z,19.33
2022-10-29T23:05:43.947Z,19.58
2022-10-29T23:08:53.044Z,19.55
2022-10-29T23:11:58.789Z,18.00
2022-10-29T23:15:06.091Z,18.02
2022-10-29T23:18:12.209Z,19.45
2022-10-29T23:21:18.457Z,17.17
2022-10-29T23:24:24.447Z,17.25
2022-10-29T23:27:30.271Z,20.70
2022-10-29T23:30:35.994Z,20.15
2022-10-29T23:33:47.597Z,18.40
2022-10-29T23:40:04.403Z,18.57
2022-10-29T23:43:10.306Z,18.33
2022-10-29T23:46:16.399Z,20.02
2022-10-29T23:49:22.016Z,20.15
2022-10-29T23:52:27.943Z,20.63
2022-10-29T23:55:35.556Z,21.00
2022-10-29T23:58:41.445Z,19.00
